Time;durP1;ratioP1;P1;durP2;ratioP2;P2;SDS_P1;SDS_P2;PMS_P1;PMS_P2;Temp;Humidity;BMP_temperature;BMP_pressure;BME280_temperature;BME280_humidity;BME280_pressure;Samples;Min_cycle;Max_cycle;Signal;HPM_P1;HPM_P2
2022/07/11 00:02:25;;;;;;;0.52;0.50;;;15.60;99.90;;;;;;4963993;28;20472;-64
2022/07/11 00:04:54;;;;;;;0.52;0.52;;;15.60;99.90;;;;;;4962636;28;20436;-64
2022/07/11 00:07:20;;;;;;;0.60;0.60;;;15.60;99.90;;;;;;4959828;28;20444;-64
2022/07/11 00:09:47;;;;;;;0.40;0.40;;;15.60;99.90;;;;;;4961196;28;20438;-65
2022/07/11 00:12:15;;;;;;;0.50;0.50;;;15.60;99.90;;;;;;4957855;28;20536;-65
2022/07/11 00:14:44;;;;;;;0.40;0.40;;;15.60;99.90;;;;;;4961526;28;20505;-65
2022/07/11 00:17:10;;;;;;;0.47;0.47;;;15.60;99.90;;;;;;4955989;28;20518;-65
2022/07/11 00:19:37;;;;;;;0.52;0.52;;;15.50;99.90;;;;;;4963615;28;20428;-65
2022/07/11 00:22:05;;;;;;;0.50;0.50;;;15.50;99.90;;;;;;4961371;28;20784;-65
2022/07/11 00:24:33;;;;;;;0.60;0.60;;;15.40;99.90;;;;;;4960653;28;20440;-64
2022/07/11 00:27:03;;;;;;;0.50;0.50;;;15.30;99.90;;;;;;4956516;28;20529;-65
2022/07/11 00:29:30;;;;;;;0.47;0.47;;;15.30;99.90;;;;;;4962790;28;20444;-64
2022/07/11 00:31:58;;;;;;;0.50;0.50;;;15.30;99.90;;;;;;4956528;28;20437;-65
2022/07/11 00:34:25;;;;;;;0.40;0.40;;;15.30;99.90;;;;;;4958373;28;20441;-65
2022/07/11 00:36:52;;;;;;;0.57;0.57;;;15.30;99.90;;;;;;4954633;28;20438;-65
2022/07/11 00:39:19;;;;;;;0.50;0.50;;;15.30;99.90;;;;;;4964014;28;20430;-64
2022/07/11 00:41:46;;;;;;;0.50;0.50;;;15.30;99.90;;;;;;4959549;28;20439;-65
2022/07/11 00:44:14;;;;;;;0.50;0.50;;;15.30;99.90;;;;;;4958646;28;20463;-64
2022/07/11 00:46:40;;;;;;;0.50;0.50;;;15.40;99.90;;;;;;4964500;28;20448;-64
2022/07/11 00:49:07;;;;;;;0.40;0.40;;;15.40;99.90;;;;;;4962573;28;20902;-64
2022/07/11 00:51:34;;;;;;;0.50;0.50;;;15.40;99.90;;;;;;4957439;28;21098;-64
2022/07/11 00:54:01;;;;;;;0.60;0.60;;;15.40;99.90;;;;;;4959554;28;20428;-64
2022/07/11 00:56:30;;;;;;;0.50;0.50;;;15.40;99.90;;;;;;4963250;28;20804;-64
2022/07/11 00:58:58;;;;;;;0.43;0.43;;;15.40;99.90;;;;;;4959067;28;21088;-64
2022/07/11 01:01:25;;;;;;;0.40;0.40;;;15.40;99.90;;;;;;4953081;28;20445;-64
2022/07/11 01:03:52;;;;;;;0.60;0.60;;;15.40;99.90;;;;;;4958286;28;20465;-64
2022/07/11 01:06:19;;;;;;;0.90;0.55;;;15.40;99.90;;;;;;4960461;28;20493;-64
2022/07/11 01:08:46;;;;;;;0.40;0.40;;;15.40;99.90;;;;;;4962648;28;20856;-64
2022/07/11 01:11:15;;;;;;;0.50;0.50;;;15.40;99.90;;;;;;4961829;28;20531;-64
2022/07/11 01:13:43;;;;;;;0.70;0.70;;;15.40;99.90;;;;;;4956382;28;22455;-64
2022/07/11 01:16:21;;;;;;;0.70;0.70;;;15.40;99.90;;;;;;4960043;28;20452;-64
2022/07/11 01:18:53;;;;;;;0.60;0.60;;;15.50;99.90;;;;;;4964679;28;20539;-64
2022/07/11 01:21:39;;;;;;;0.50;0.50;;;15.50;99.90;;;;;;4952885;28;20459;-65
2022/07/11 01:24:08;;;;;;;0.40;0.40;;;15.40;99.90;;;;;;4962308;28;20939;-64
2022/07/11 01:26:36;;;;;;;0.50;0.50;;;15.50;99.90;;;;;;4954650;28;20536;-64
2022/07/11 01:29:11;;;;;;;0.60;0.60;;;15.50;99.90;;;;;;4955352;28;20444;-64
2022/07/11 01:31:39;;;;;;;0.50;0.50;;;15.50;99.90;;;;;;4954678;28;20466;-64
2022/07/11 01:34:09;;;;;;;0.70;0.70;;;15.60;99.90;;;;;;4955373;28;20537;-65
2022/07/11 01:36:36;;;;;;;0.52;0.52;;;15.60;99.90;;;;;;4957836;28;20458;-64
2022/07/11 01:39:03;;;;;;;0.60;0.60;;;15.60;99.90;;;;;;4950014;28;21124;-65
2022/07/11 01:41:30;;;;;;;0.60;0.60;;;15.60;99.90;;;;;;4953953;28;20438;-64
2022/07/11 01:44:00;;;;;;;0.60;0.60;;;15.50;99.90;;;;;;4955555;28;20442;-64
2022/07/11 01:46:27;;;;;;;0.90;0.60;;;15.60;99.90;;;;;;4959774;28;20465;-64
2022/07/11 01:48:54;;;;;;;0.60;0.60;;;15.50;99.90;;;;;;4957292;28;20518;-64
2022/07/11 01:51:23;;;;;;;0.67;0.67;;;15.50;99.90;;;;;;4962367;28;20436;-64
2022/07/11 01:53:49;;;;;;;0.60;0.60;;;15.50;99.90;;;;;;4954088;28;20435;-64
2022/07/11 01:56:16;;;;;;;0.65;0.65;;;15.50;99.90;;;;;;4961078;28;20936;-64
2022/07/11 01:58:48;;;;;;;0.52;0.52;;;15.50;99.90;;;;;;4959004;28;20913;-64
2022/07/11 02:01:15;;;;;;;0.80;0.80;;;15.50;99.90;;;;;;4961157;28;20434;-64
2022/07/11 02:03:49;;;;;;;0.57;0.57;;;15.50;99.90;;;;;;4958156;28;20466;-64
2022/07/11 02:06:16;;;;;;;0.70;0.70;;;15.40;99.90;;;;;;4962877;28;20436;-64
2022/07/11 02:08:42;;;;;;;0.70;0.70;;;15.50;99.90;;;;;;4961506;28;20436;-64
2022/07/11 02:11:09;;;;;;;0.70;0.70;;;15.50;99.90;;;;;;4959271;28;20834;-64
2022/07/11 02:13:36;;;;;;;0.90;0.90;;;15.50;99.90;;;;;;4954347;28;20434;-64
2022/07/11 02:16:03;;;;;;;0.80;0.80;;;15.40;99.90;;;;;;4949011;28;20532;-64
2022/07/11 02:18:33;;;;;;;0.70;0.70;;;15.50;99.90;;;;;;4958661;28;20451;-64
2022/07/11 02:21:02;;;;;;;0.45;0.45;;;15.60;99.90;;;;;;4954921;28;20522;-64
2022/07/11 02:23:29;;;;;;;0.77;0.77;;;15.60;99.90;;;;;;4957362;28;20496;-64
2022/07/11 02:25:56;;;;;;;0.60;0.60;;;15.60;99.90;;;;;;4949324;28;20472;-64
2022/07/11 02:28:22;;;;;;;0.55;0.55;;;15.60;99.90;;;;;;4961647;28;20464;-65
2022/07/11 02:30:49;;;;;;;0.70;0.70;;;15.60;99.90;;;;;;4949948;28;20444;-64
2022/07/11 02:33:16;;;;;;;0.60;0.60;;;15.60;99.90;;;;;;4954987;28;20565;-64
2022/07/11 02:35:45;;;;;;;0.43;0.43;;;15.60;99.90;;;;;;4960892;28;20443;-64
2022/07/11 02:38:18;;;;;;;0.50;0.50;;;15.60;99.90;;;;;;4958745;28;20908;-64
2022/07/11 02:40:47;;;;;;;0.50;0.50;;;15.60;99.90;;;;;;4962162;28;20436;-64
2022/07/11 02:43:15;;;;;;;0.50;0.50;;;15.60;99.90;;;;;;4958137;28;20443;-64
2022/07/11 02:45:42;;;;;;;0.70;0.60;;;15.60;99.90;;;;;;4962385;28;20519;-64
2022/07/11 02:48:09;;;;;;;0.63;0.63;;;15.60;99.90;;;;;;4965928;28;20440;-64
2022/07/11 02:50:36;;;;;;;0.80;0.80;;;15.60;99.90;;;;;;4954606;28;20430;-64
2022/07/11 02:53:03;;;;;;;0.70;0.70;;;15.60;99.90;;;;;;4961744;28;20428;-64
2022/07/11 02:55:30;;;;;;;0.63;0.63;;;15.50;99.90;;;;;;4964129;28;20522;-64
2022/07/11 02:57:57;;;;;;;0.80;0.80;;;15.50;99.90;;;;;;4956927;28;20869;-64
2022/07/11 03:00:27;;;;;;;0.67;0.67;;;15.50;99.90;;;;;;4956369;28;20984;-64
2022/07/11 03:02:53;;;;;;;0.70;0.70;;;15.50;99.90;;;;;;4962279;28;20448;-64
2022/07/11 03:05:20;;;;;;;0.70;0.70;;;15.50;99.90;;;;;;4962123;28;21219;-64
2022/07/11 03:07:47;;;;;;;0.80;0.80;;;15.50;99.90;;;;;;4961820;28;20451;-64
2022/07/11 03:10:14;;;;;;;0.70;0.70;;;15.50;99.90;;;;;;4962870;28;20551;-64
2022/07/11 03:12:41;;;;;;;0.57;0.52;;;15.50;99.90;;;;;;4959138;28;20454;-64
2022/07/11 03:15:09;;;;;;;0.52;0.52;;;15.50;99.90;;;;;;4968724;28;20454;-64
2022/07/11 03:17:36;;;;;;;0.70;0.70;;;15.50;99.90;;;;;;4958931;28;21472;-64
2022/07/11 03:20:04;;;;;;;0.77;0.77;;;15.50;99.90;;;;;;4963236;28;20952;-64
2022/07/11 03:22:31;;;;;;;0.50;0.50;;;15.50;99.90;;;;;;4959134;28;21375;-64
2022/07/11 03:25:00;;;;;;;1.10;0.80;;;15.50;99.90;;;;;;4959398;28;20432;-64
2022/07/11 03:27:27;;;;;;;0.50;0.50;;;15.50;99.90;;;;;;4965419;28;20462;-64
2022/07/11 03:29:53;;;;;;;1.17;0.50;;;15.50;99.90;;;;;;4977867;28;20922;-64
2022/07/11 03:32:22;;;;;;;0.60;0.60;;;15.50;99.90;;;;;;4962652;28;21143;-64
2022/07/11 03:37:40;;;;;;;0.60;0.60;;;15.40;99.90;;;;;;4963996;28;20935;-63
2022/07/11 03:40:08;;;;;;;0.70;0.70;;;15.40;99.90;;;;;;4964474;28;20432;-64
2022/07/11 03:42:35;;;;;;;0.60;0.60;;;15.50;99.90;;;;;;4960704;28;20527;-64
2022/07/11 03:45:02;;;;;;;0.77;0.77;;;15.50;99.90;;;;;;4959852;28;20440;-63
2022/07/11 03:47:28;;;;;;;0.50;0.50;;;15.60;99.90;;;;;;4955804;28;20437;-64
2022/07/11 03:49:55;;;;;;;0.50;0.50;;;15.50;99.90;;;;;;4968891;28;20444;-64
2022/07/11 03:52:22;;;;;;;0.50;0.50;;;15.50;99.90;;;;;;4958145;28;20435;-64
2022/07/11 03:54:49;;;;;;;0.60;0.60;;;15.50;99.90;;;;;;4959273;28;20536;-63
2022/07/11 03:57:16;;;;;;;0.60;0.60;;;15.50;99.90;;;;;;4960006;28;20444;-64
2022/07/11 03:59:43;;;;;;;0.60;0.60;;;15.50;99.90;;;;;;4960691;28;20437;-64
2022/07/11 04:02:09;;;;;;;0.70;0.70;;;15.50;99.90;;;;;;4954556;28;20460;-64
2022/07/11 04:04:36;;;;;;;0.70;0.70;;;15.50;99.90;;;;;;4959701;28;20445;-64
2022/07/11 04:07:03;;;;;;;0.70;0.70;;;15.60;99.90;;;;;;4967645;28;20460;-64
2022/07/11 04:09:31;;;;;;;0.50;0.50;;;15.60;99.90;;;;;;4958912;28;20495;-64
2022/07/11 04:11:58;;;;;;;0.60;0.60;;;15.60;99.90;;;;;;4959659;28;20446;-64
2022/07/11 04:14:24;;;;;;;0.60;0.60;;;15.70;99.90;;;;;;4959328;28;20476;-64
2022/07/11 04:16:51;;;;;;;0.65;0.60;;;15.70;99.90;;;;;;4956675;28;20529;-64
2022/07/11 04:19:18;;;;;;;0.60;0.60;;;15.70;99.90;;;;;;4957837;28;20441;-64
2022/07/11 04:21:45;;;;;;;0.80;0.80;;;15.70;99.90;;;;;;4960497;28;20443;-64
2022/07/11 04:24:12;;;;;;;0.60;0.60;;;15.80;99.90;;;;;;4963441;28;20428;-64
2022/07/11 04:26:38;;;;;;;0.50;0.50;;;15.80;99.90;;;;;;4960184;28;20447;-64
2022/07/11 04:29:07;;;;;;;0.60;0.60;;;15.80;99.90;;;;;;4955160;28;20434;-64
2022/07/11 04:31:34;;;;;;;0.50;0.50;;;15.90;99.90;;;;;;4957198;28;20446;-64
2022/07/11 04:34:01;;;;;;;0.60;0.60;;;16.00;99.90;;;;;;4953165;28;20440;-63
2022/07/11 04:36:28;;;;;;;0.60;0.60;;;16.00;99.90;;;;;;4960491;28;20460;-64
2022/07/11 04:38:55;;;;;;;0.52;0.52;;;16.10;99.90;;;;;;4962447;28;20439;-64
2022/07/11 04:41:21;;;;;;;0.50;0.50;;;16.20;99.90;;;;;;4961213;28;20439;-64
2022/07/11 04:43:49;;;;;;;0.65;0.65;;;16.40;99.90;;;;;;4951198;28;20440;-64
2022/07/11 04:46:19;;;;;;;0.52;0.52;;;16.40;99.90;;;;;;4957353;28;20434;-64
2022/07/11 04:48:46;;;;;;;0.70;0.70;;;16.50;99.90;;;;;;4954094;28;20448;-64
2022/07/11 04:51:13;;;;;;;0.50;0.50;;;16.70;99.90;;;;;;4957348;28;20439;-63
2022/07/11 04:53:40;;;;;;;0.50;0.50;;;16.80;99.90;;;;;;4952692;28;20448;-64
2022/07/11 04:56:10;;;;;;;0.40;0.40;;;16.90;99.90;;;;;;4961604;28;20446;-63
2022/07/11 04:58:36;;;;;;;0.60;0.60;;;17.10;99.90;;;;;;4954444;28;20443;-64
2022/07/11 05:01:03;;;;;;;0.50;0.50;;;17.30;99.90;;;;;;4960851;28;20489;-64
2022/07/11 05:03:32;;;;;;;0.60;0.60;;;17.60;99.90;;;;;;4956995;28;20525;-63
2022/07/11 05:05:58;;;;;;;1.05;0.50;;;17.90;99.90;;;;;;4958037;28;20544;-64
2022/07/11 05:08:25;;;;;;;0.50;0.50;;;18.20;99.90;;;;;;4954231;28;20436;-64
2022/07/11 05:10:52;;;;;;;0.70;0.70;;;18.40;99.90;;;;;;4964751;28;20547;-65
2022/07/11 05:13:19;;;;;;;0.70;0.70;;;18.60;99.90;;;;;;4961017;28;20436;-64
2022/07/11 05:15:45;;;;;;;0.50;0.50;;;18.80;99.90;;;;;;4958833;28;20809;-64
2022/07/11 05:18:14;;;;;;;0.50;0.50;;;18.90;99.90;;;;;;4961018;28;20522;-64
2022/07/11 05:20:41;;;;;;;1.10;0.55;;;18.90;99.90;;;;;;4963728;28;20437;-64
2022/07/11 05:23:08;;;;;;;0.50;0.50;;;19.00;99.90;;;;;;4954896;28;20528;-63
2022/07/11 05:25:34;;;;;;;0.40;0.40;;;19.00;99.90;;;;;;4955936;28;20440;-64
2022/07/11 05:28:01;;;;;;;0.47;0.47;;;19.00;99.90;;;;;;4955678;28;20436;-64
2022/07/11 05:30:28;;;;;;;0.70;0.70;;;19.10;99.90;;;;;;4957207;28;20441;-65
2022/07/11 05:32:55;;;;;;;0.50;0.50;;;19.00;99.90;;;;;;4956067;28;20508;-65
2022/07/11 05:35:22;;;;;;;0.40;0.40;;;19.00;99.90;;;;;;4963857;28;20450;-65
2022/07/11 05:37:49;;;;;;;0.57;0.57;;;19.00;99.90;;;;;;4960970;28;20472;-65
2022/07/11 05:40:15;;;;;;;0.40;0.40;;;19.30;99.90;;;;;;4963268;28;20978;-65
2022/07/11 05:42:42;;;;;;;0.50;0.50;;;19.50;99.90;;;;;;4952313;28;20525;-66
2022/07/11 05:45:10;;;;;;;0.50;0.50;;;19.60;99.90;;;;;;4951618;28;20515;-66
2022/07/11 05:47:40;;;;;;;0.43;0.43;;;19.80;99.90;;;;;;4983542;28;20448;-65
2022/07/11 05:50:07;;;;;;;0.57;0.57;;;19.90;99.90;;;;;;4975730;28;20532;-64
2022/07/11 05:52:34;;;;;;;0.47;0.47;;;19.90;99.90;;;;;;4960791;28;20519;-65
2022/07/11 05:55:01;;;;;;;0.47;0.47;;;20.10;99.90;;;;;;4991812;28;20999;-65
2022/07/11 05:57:28;;;;;;;0.90;0.50;;;20.30;99.90;;;;;;4967968;28;20436;-64
2022/07/11 05:59:55;;;;;;;0.40;0.40;;;20.40;99.90;;;;;;4967350;28;20434;-65
2022/07/11 06:02:22;;;;;;;0.40;0.40;;;20.50;99.90;;;;;;4979247;28;20530;-65
2022/07/11 06:04:49;;;;;;;0.50;0.50;;;20.60;99.90;;;;;;4953586;28;20801;-64
2022/07/11 06:08:40;;;;;;;0.43;0.25;;;20.60;99.90;;;;;;4960379;28;20810;-65
2022/07/11 06:10:03;;;;;;;0.70;0.30;;;20.60;99.90;;;;;;4961475;28;20868;-65
2022/07/11 06:12:29;;;;;;;0.50;0.50;;;20.60;99.90;;;;;;4957749;28;20485;-65
2022/07/11 06:14:57;;;;;;;0.30;0.30;;;20.60;99.90;;;;;;4961744;28;20798;-65
2022/07/11 06:17:24;;;;;;;0.32;0.32;;;20.70;99.90;;;;;;4953987;28;20515;-65
2022/07/11 06:19:53;;;;;;;0.40;0.40;;;20.50;99.90;;;;;;4949559;28;20448;-64
2022/07/11 06:22:20;;;;;;;0.40;0.40;;;20.50;99.90;;;;;;4957132;28;20444;-65
2022/07/11 06:24:51;;;;;;;0.40;0.40;;;20.60;99.90;;;;;;4949171;28;20495;-65
2022/07/11 06:27:18;;;;;;;0.43;0.43;;;20.90;99.90;;;;;;4959856;28;20440;-65
2022/07/11 06:29:44;;;;;;;0.60;0.60;;;21.10;99.90;;;;;;4959489;28;20446;-65
2022/07/11 06:32:11;;;;;;;0.50;0.50;;;21.40;99.90;;;;;;4956669;28;20440;-65
2022/07/11 06:34:38;;;;;;;0.30;0.30;;;21.80;99.90;;;;;;4956169;28;20474;-65
2022/07/11 06:37:05;;;;;;;0.35;0.35;;;23.00;99.90;;;;;;4959398;28;20460;-64
2022/07/11 06:39:32;;;;;;;0.53;0.53;;;23.60;99.90;;;;;;4956868;28;20447;-65
2022/07/11 06:41:58;;;;;;;0.40;0.40;;;24.00;99.90;;;;;;4956579;28;20432;-65
2022/07/11 06:44:25;;;;;;;0.35;0.35;;;23.70;99.90;;;;;;4953442;28;20445;-64
2022/07/11 06:46:54;;;;;;;0.40;0.40;;;22.90;99.90;;;;;;4960447;28;20439;-64
2022/07/11 06:49:23;;;;;;;0.40;0.40;;;22.50;99.90;;;;;;4959591;28;20447;-64
2022/07/11 06:51:50;;;;;;;0.40;0.40;;;22.00;99.90;;;;;;4957236;28;20464;-65
2022/07/11 06:54:19;;;;;;;0.40;0.40;;;21.80;99.90;;;;;;4954444;28;20462;-64
2022/07/11 06:56:45;;;;;;;0.80;0.40;;;21.70;99.90;;;;;;4955775;28;20444;-65
2022/07/11 06:59:12;;;;;;;0.60;0.52;;;21.80;99.90;;;;;;4954288;28;20450;-63
2022/07/11 07:01:42;;;;;;;0.70;0.70;;;21.90;99.90;;;;;;4956703;28;20497;-65
2022/07/11 07:04:09;;;;;;;0.40;0.40;;;21.90;99.90;;;;;;4966535;28;20443;-63
2022/07/11 07:06:39;;;;;;;0.60;0.60;;;22.10;99.90;;;;;;4953351;28;20438;-63
2022/07/11 07:09:06;;;;;;;0.68;0.68;;;22.20;99.90;;;;;;4958526;28;20442;-64
2022/07/11 07:11:33;;;;;;;0.70;0.70;;;22.50;99.90;;;;;;4960945;28;20432;-65
2022/07/11 07:14:00;;;;;;;0.60;0.60;;;22.40;99.90;;;;;;4957126;28;20476;-64
2022/07/11 07:16:26;;;;;;;0.50;0.50;;;22.60;99.90;;;;;;4956878;28;20949;-64
2022/07/11 07:18:53;;;;;;;0.52;0.52;;;22.70;99.90;;;;;;4954541;28;20451;-65
2022/07/11 07:21:20;;;;;;;0.65;0.65;;;22.80;99.90;;;;;;4958682;28;20777;-64
2022/07/11 07:23:47;;;;;;;0.60;0.60;;;22.90;99.90;;;;;;4957917;28;20440;-64
2022/07/11 07:26:15;;;;;;;0.50;0.50;;;22.90;99.90;;;;;;4963055;28;20510;-64
2022/07/11 07:28:47;;;;;;;0.50;0.50;;;23.20;99.90;;;;;;4984678;28;20933;-63
2022/07/11 07:31:14;;;;;;;0.57;0.57;;;23.90;99.90;;;;;;4964802;28;20532;-63
2022/07/11 07:33:42;;;;;;;0.70;0.70;;;25.40;99.90;;;;;;4958519;28;20509;-63
2022/07/11 07:36:13;;;;;;;0.50;0.50;;;26.80;99.90;;;;;;4957322;28;20444;-63
2022/07/11 07:38:46;;;;;;;0.50;0.50;;;27.20;99.90;;;;;;4954186;28;20511;-65
2022/07/11 07:41:16;;;;;;;0.40;0.40;;;27.00;99.90;;;;;;4957981;28;20451;-65
2022/07/11 07:43:43;;;;;;;1.00;0.60;;;26.10;99.90;;;;;;4953906;28;20448;-65
2022/07/11 07:46:10;;;;;;;0.50;0.50;;;25.30;99.90;;;;;;4955621;28;20523;-65
2022/07/11 07:48:40;;;;;;;0.40;0.40;;;24.50;99.90;;;;;;4966579;28;20440;-64
2022/07/11 07:51:10;;;;;;;0.50;0.50;;;23.90;99.90;;;;;;4960369;28;20444;-64
2022/07/11 07:53:37;;;;;;;0.50;0.50;;;23.30;99.90;;;;;;4961428;28;20436;-65
2022/07/11 07:56:05;;;;;;;0.50;0.50;;;22.80;99.90;;;;;;4963066;28;20434;-65
2022/07/11 07:58:31;;;;;;;0.60;0.60;;;22.30;99.90;;;;;;4955092;28;20446;-65
2022/07/11 08:03:47;;;;;;;0.50;0.50;;;21.60;99.90;;;;;;4972937;28;20509;-65
2022/07/11 08:06:14;;;;;;;3.50;0.60;;;21.40;99.90;;;;;;4954961;28;20432;-64
2022/07/11 08:08:41;;;;;;;0.55;0.55;;;21.20;99.90;;;;;;4956798;28;20531;-65
2022/07/11 08:11:08;;;;;;;1.15;0.60;;;21.10;99.90;;;;;;4961748;28;20445;-65
2022/07/11 08:13:55;;;;;;;0.80;0.80;;;21.20;99.90;;;;;;4986652;28;20436;-65
2022/07/11 08:16:22;;;;;;;0.50;0.50;;;21.30;99.90;;;;;;4960871;28;20802;-64
2022/07/11 08:18:55;;;;;;;0.60;0.60;;;21.40;99.90;;;;;;4962645;28;21433;-65
2022/07/11 08:21:25;;;;;;;0.50;0.50;;;21.40;99.90;;;;;;4961951;28;20493;-65
2022/07/11 08:23:52;;;;;;;0.60;0.60;;;21.30;99.90;;;;;;4955306;28;20492;-65
2022/07/11 08:26:18;;;;;;;0.57;0.57;;;21.20;99.90;;;;;;4962087;28;22081;-65
2022/07/11 08:28:45;;;;;;;0.75;0.65;;;21.00;99.90;;;;;;4959062;28;20459;-65
2022/07/11 08:31:12;;;;;;;0.60;0.60;;;21.00;99.90;;;;;;4954318;28;20437;-65
2022/07/11 08:33:39;;;;;;;0.40;0.40;;;21.00;99.90;;;;;;4946244;28;20795;-65
2022/07/11 08:36:06;;;;;;;0.60;0.60;;;21.10;99.90;;;;;;4959256;28;20450;-65
2022/07/11 08:38:33;;;;;;;0.70;0.60;;;21.20;99.90;;;;;;4961943;28;20447;-65
2022/07/11 08:41:00;;;;;;;0.50;0.50;;;21.40;99.90;;;;;;4965742;28;20515;-65
2022/07/11 08:43:31;;;;;;;1.23;0.68;;;21.70;99.90;;;;;;4967329;28;20447;-65
2022/07/11 08:45:59;;;;;;;0.40;0.40;;;21.90;99.90;;;;;;4963955;28;20434;-66
2022/07/11 08:48:27;;;;;;;0.38;0.38;;;22.40;99.90;;;;;;4969276;28;20914;-65
2022/07/11 08:50:53;;;;;;;0.40;0.40;;;23.10;99.90;;;;;;4965285;28;20437;-65
2022/07/11 08:53:20;;;;;;;0.70;0.70;;;23.60;99.90;;;;;;4965510;28;21267;-65
2022/07/11 08:55:47;;;;;;;0.30;0.30;;;23.90;99.90;;;;;;4964824;28;20445;-65
2022/07/11 08:58:14;;;;;;;0.30;0.30;;;24.30;99.90;;;;;;4963109;28;20442;-65
2022/07/11 09:00:43;;;;;;;1.10;0.30;;;24.60;99.90;;;;;;4963648;28;20443;-65
2022/07/11 09:03:14;;;;;;;0.40;0.40;;;24.90;99.90;;;;;;4956939;28;20517;-65
2022/07/11 09:05:41;;;;;;;0.35;0.35;;;25.10;99.90;;;;;;4977194;28;20538;-66
2022/07/11 09:08:08;;;;;;;0.60;0.60;;;25.30;99.90;;;;;;4972352;28;20512;-66
2022/07/11 09:10:38;;;;;;;0.40;0.40;;;25.20;99.90;;;;;;4958514;28;20434;-65
2022/07/11 09:13:08;;;;;;;0.50;0.50;;;25.10;99.90;;;;;;4957068;28;20444;-65
2022/07/11 09:15:38;;;;;;;0.40;0.40;;;25.00;99.90;;;;;;4958174;28;20444;-65
2022/07/11 09:18:24;;;;;;;0.30;0.30;;;24.60;99.90;;;;;;4959494;28;20455;-65
2022/07/11 09:26:48;;;;;;;0.40;0.40;;;24.60;99.90;;;;;;4963070;28;20475;-65
2022/07/11 09:29:19;;;;;;;0.40;0.40;;;24.60;99.90;;;;;;4962475;28;21190;-65
2022/07/11 09:31:47;;;;;;;0.50;0.50;;;24.60;99.90;;;;;;4963086;28;20440;-65
2022/07/11 09:34:18;;;;;;;0.50;0.50;;;24.60;99.90;;;;;;4955913;28;20528;-66
2022/07/11 09:36:46;;;;;;;0.50;0.50;;;24.60;99.90;;;;;;4963062;28;20434;-65
2022/07/11 09:39:17;;;;;;;0.47;0.47;;;24.40;99.90;;;;;;4959829;28;20531;-65
2022/07/11 09:41:46;;;;;;;0.40;0.40;;;24.40;99.90;;;;;;4967164;28;20436;-65
2022/07/11 09:44:14;;;;;;;0.40;0.40;;;24.30;99.90;;;;;;4961740;28;20448;-65
2022/07/11 09:46:45;;;;;;;0.40;0.40;;;24.10;99.90;;;;;;4971730;28;20442;-65
2022/07/11 09:49:13;;;;;;;0.50;0.50;;;23.90;99.90;;;;;;4966619;28;21118;-65
2022/07/11 09:51:42;;;;;;;0.40;0.40;;;23.90;99.90;;;;;;4971017;28;20535;-65
2022/07/11 09:54:11;;;;;;;0.35;0.35;;;24.20;99.90;;;;;;4975444;28;20444;-65
2022/07/11 09:56:39;;;;;;;0.40;0.40;;;24.30;99.90;;;;;;4993269;28;20531;-65
2022/07/11 09:59:23;;;;;;;0.50;0.50;;;24.60;99.90;;;;;;4974371;28;20442;-64
2022/07/11 10:01:50;;;;;;;0.40;0.40;;;25.10;99.90;;;;;;4969148;28;20440;-65
2022/07/11 10:04:17;;;;;;;0.50;0.50;;;25.40;99.90;;;;;;4958115;28;20464;-64
2022/07/11 10:06:44;;;;;;;0.57;0.57;;;25.70;99.90;;;;;;4964251;28;20434;-65
2022/07/11 10:09:11;;;;;;;0.33;0.33;;;26.50;99.90;;;;;;4961560;28;20543;-62
2022/07/11 10:11:38;;;;;;;0.30;0.30;;;27.10;99.90;;;;;;4957054;28;20528;-64
2022/07/11 10:14:08;;;;;;;0.40;0.40;;;27.30;99.90;;;;;;4965999;28;20462;-65
2022/07/11 10:16:56;;;;;;;0.30;0.30;;;27.10;99.90;;;;;;4959630;28;20526;-64
2022/07/11 10:19:31;;;;;;;0.40;0.40;;;27.10;99.90;;;;;;4954600;28;20443;-65
2022/07/11 10:22:16;;;;;;;0.50;0.50;;;27.00;99.90;;;;;;4955806;28;20436;-64
2022/07/11 10:25:10;;;;;;;0.40;0.40;;;27.40;99.90;;;;;;4969345;28;20517;-63
2022/07/11 10:28:02;;;;;;;0.45;0.45;;;27.70;99.90;;;;;;4961700;28;20433;-64
2022/07/11 10:30:41;;;;;;;0.30;0.30;;;28.00;99.90;;;;;;4964533;28;20525;-64
2022/07/11 10:33:08;;;;;;;0.50;0.50;;;28.30;99.90;;;;;;4984320;28;20438;-63
2022/07/11 10:35:35;;;;;;;0.40;0.40;;;28.90;99.90;;;;;;4966266;28;20466;-64
2022/07/11 10:38:05;;;;;;;0.47;0.47;;;29.60;99.80;;;;;;4966349;28;20980;-65
2022/07/11 10:40:50;;;;;;;0.40;0.40;;;29.40;99.90;;;;;;4955970;28;20460;-65
2022/07/11 10:43:36;;;;;;;0.50;0.50;;;28.90;99.40;;;;;;4952595;28;20527;-65
2022/07/11 10:46:04;;;;;;;0.40;0.40;;;28.80;99.50;;;;;;4964520;28;20487;-64
2022/07/11 10:48:34;;;;;;;0.50;0.50;;;28.90;99.90;;;;;;4967108;28;20531;-64
2022/07/11 10:51:24;;;;;;;0.30;0.30;;;29.30;99.90;;;;;;4961225;28;20471;-64
2022/07/11 10:53:52;;;;;;;0.40;0.40;;;29.90;98.70;;;;;;4969099;28;20629;-62
2022/07/11 10:56:27;;;;;;;0.40;0.40;;;30.20;97.90;;;;;;4962464;28;20888;-62
2022/07/11 10:59:19;;;;;;;0.35;0.35;;;29.10;97.90;;;;;;4953361;28;20438;-66
2022/07/11 11:02:03;;;;;;;0.60;0.60;;;28.50;99.10;;;;;;4960912;28;20426;-64
2022/07/11 11:04:49;;;;;;;0.40;0.40;;;28.10;98.90;;;;;;4972037;28;20438;-65
2022/07/11 11:07:38;;;;;;;0.60;0.60;;;28.20;99.60;;;;;;4958806;28;20456;-63
2022/07/11 11:10:33;;;;;;;0.60;0.60;;;28.80;99.20;;;;;;4971841;28;20440;-64
2022/07/11 11:13:09;;;;;;;0.40;0.40;;;28.90;98.30;;;;;;4964315;28;20953;-66
2022/07/11 11:15:43;;;;;;;0.43;0.43;;;28.70;98.70;;;;;;4963898;28;20436;-64
2022/07/11 11:18:25;;;;;;;0.40;0.40;;;28.30;99.00;;;;;;4965584;28;20432;-64
2022/07/11 11:21:06;;;;;;;0.50;0.50;;;28.30;98.90;;;;;;4979000;28;20431;-64
2022/07/11 11:23:37;;;;;;;0.40;0.40;;;28.50;98.70;;;;;;4960498;28;20436;-63
2022/07/11 11:26:11;;;;;;;0.40;0.40;;;28.40;98.30;;;;;;4966647;28;20496;-64
2022/07/11 11:28:54;;;;;;;0.40;0.40;;;28.50;99.00;;;;;;4959789;28;20442;-63
2022/07/11 11:31:21;;;;;;;0.50;0.50;;;28.70;97.90;;;;;;4968840;28;20435;-63
2022/07/11 11:33:48;;;;;;;0.47;0.47;;;28.50;98.00;;;;;;4961678;28;20440;-64
2022/07/11 11:36:20;;;;;;;0.47;0.47;;;28.30;98.40;;;;;;4960333;28;20436;-64
2022/07/11 11:38:47;;;;;;;0.40;0.40;;;28.40;98.60;;;;;;4957307;28;20438;-63
2022/07/11 11:41:28;;;;;;;0.40;0.40;;;28.90;98.30;;;;;;4954433;28;20788;-65
2022/07/11 11:43:58;;;;;;;0.55;0.55;;;29.20;97.90;;;;;;4961534;28;20466;-63
2022/07/11 11:46:30;;;;;;;0.50;0.50;;;29.40;98.10;;;;;;4959911;28;20525;-64
2022/07/11 11:49:01;;;;;;;0.40;0.40;;;30.10;97.30;;;;;;4966534;28;20915;-65
2022/07/11 11:51:30;;;;;;;0.60;0.60;;;30.30;97.30;;;;;;4961628;28;20573;-65
2022/07/11 11:54:00;;;;;;;0.50;0.50;;;29.90;97.20;;;;;;4963209;28;20776;-63
2022/07/11 11:56:36;;;;;;;0.30;0.30;;;29.60;97.30;;;;;;4960813;28;20565;-64
2022/07/11 11:59:13;;;;;;;0.40;0.40;;;29.60;97.70;;;;;;4959065;28;20806;-65
2022/07/11 12:01:48;;;;;;;0.40;0.40;;;29.60;97.30;;;;;;4959861;28;20430;-65
2022/07/11 12:04:17;;;;;;;0.50;0.50;;;29.20;97.40;;;;;;4957878;28;20458;-65
2022/07/11 12:06:46;;;;;;;0.45;0.45;;;28.80;96.90;;;;;;4962415;28;20443;-65
2022/07/11 12:09:16;;;;;;;0.60;0.60;;;28.60;97.70;;;;;;4960915;28;20505;-65
2022/07/11 12:11:47;;;;;;;0.50;0.50;;;28.40;97.90;;;;;;4957945;28;20501;-63
2022/07/11 12:14:15;;;;;;;0.45;0.45;;;28.90;98.10;;;;;;4957716;28;20479;-64
2022/07/11 12:16:44;;;;;;;0.40;0.40;;;28.80;97.40;;;;;;4967997;28;20540;-64
2022/07/11 12:19:21;;;;;;;0.50;0.50;;;28.90;97.60;;;;;;4951420;28;20438;-64
2022/07/11 12:21:53;;;;;;;0.40;0.40;;;29.20;97.40;;;;;;4957457;28;20441;-64
2022/07/11 12:24:22;;;;;;;0.40;0.40;;;29.30;97.50;;;;;;4970513;28;20443;-65
2022/07/11 12:26:50;;;;;;;0.40;0.40;;;29.00;97.30;;;;;;4959766;28;20433;-62
2022/07/11 12:29:24;;;;;;;0.45;0.45;;;29.00;97.50;;;;;;4959671;28;20525;-64
2022/07/11 12:31:53;;;;;;;0.40;0.40;;;28.80;97.50;;;;;;4966943;28;20450;-65
2022/07/11 12:34:27;;;;;;;0.60;0.60;;;29.30;97.90;;;;;;4965224;28;20515;-64
2022/07/11 12:37:05;;;;;;;0.40;0.40;;;29.60;97.20;;;;;;4961752;28;20436;-65
2022/07/11 12:39:38;;;;;;;0.52;0.52;;;29.80;97.00;;;;;;4966773;28;20523;-64
2022/07/11 12:42:40;;;;;;;0.40;0.40;;;29.90;96.80;;;;;;4956234;28;20430;-65
2022/07/11 12:45:13;;;;;;;0.80;0.60;;;29.90;96.90;;;;;;5016759;28;20446;-65
2022/07/11 12:47:45;;;;;;;0.37;0.37;;;29.90;96.50;;;;;;5010141;28;20437;-64
2022/07/11 12:50:18;;;;;;;0.50;0.50;;;29.80;97.10;;;;;;5022693;28;20426;-64
2022/07/11 12:52:48;;;;;;;0.47;0.47;;;29.40;96.30;;;;;;5015636;28;20436;-65
2022/07/11 12:55:33;;;;;;;0.40;0.40;;;29.10;97.10;;;;;;5011195;28;20434;-65
2022/07/11 12:58:07;;;;;;;0.50;0.50;;;28.80;97.10;;;;;;5014201;28;20435;-64
2022/07/11 13:00:39;;;;;;;0.35;0.35;;;28.60;97.80;;;;;;4998386;28;20454;-64
2022/07/11 13:03:07;;;;;;;0.50;0.50;;;28.60;97.20;;;;;;5012106;28;20471;-64
2022/07/11 13:05:57;;;;;;;0.40;0.40;;;28.70;97.10;;;;;;5006714;28;20423;-64
2022/07/11 13:08:47;;;;;;;0.40;0.40;;;29.10;96.70;;;;;;5021330;28;20438;-62
2022/07/11 13:11:22;;;;;;;0.60;0.60;;;29.40;96.60;;;;;;5017262;28;20969;-62
2022/07/11 13:13:49;;;;;;;0.40;0.40;;;30.30;96.10;;;;;;5008424;28;20428;-64